sensor_id;sensor_type;location;lat;lon;timestamp;pressure;altitude;pressure_sealevel;temperature;humidity
49973;BME280;65693;49.798;10.968;2023-02-26T00:01:49;97623.19;;;6.91;60.07
49973;BME280;65693;49.798;10.968;2023-02-26T00:04:20;97624.97;;;6.90;60.11
49973;BME280;65693;49.798;10.968;2023-02-26T00:06:46;97620.63;;;6.89;59.91
49973;BME280;65693;49.798;10.968;2023-02-26T00:09:23;97618.75;;;6.91;59.96
49973;BME280;65693;49.798;10.968;2023-02-26T00:11:53;97622.34;;;6.90;60.11
49973;BME280;65693;49.798;10.968;2023-02-26T00:14:24;97623.28;;;6.89;59.92
49973;BME280;65693;49.798;10.968;2023-02-26T00:17:12;97628.66;;;6.88;60.12
49973;BME280;65693;49.798;10.968;2023-02-26T00:19:45;97627.78;;;6.87;60.13
49973;BME280;65693;49.798;10.968;2023-02-26T00:22:15;97633.91;;;6.88;59.92
49973;BME280;65693;49.798;10.968;2023-02-26T00:24:45;97640.88;;;6.89;60.06
49973;BME280;65693;49.798;10.968;2023-02-26T00:27:13;97644.44;;;6.88;59.84
49973;BME280;65693;49.798;10.968;2023-02-26T00:29:43;97640.13;;;6.87;59.68
49973;BME280;65693;49.798;10.968;2023-02-26T00:32:11;97647.25;;;6.84;59.85
49973;BME280;65693;49.798;10.968;2023-02-26T00:34:44;97649.03;;;6.84;59.86
49973;BME280;65693;49.798;10.968;2023-02-26T00:37:27;97654.38;;;6.82;60.42
49973;BME280;65693;49.798;10.968;2023-02-26T00:40:19;97650.81;;;6.83;59.99
49973;BME280;65693;49.798;10.968;2023-02-26T00:42:51;97650.91;;;6.82;59.82
49973;BME280;65693;49.798;10.968;2023-02-26T00:45:20;97651.75;;;6.82;59.91
49973;BME280;65693;49.798;10.968;2023-02-26T00:47:54;97656.19;;;6.82;59.81
49973;BME280;65693;49.798;10.968;2023-02-26T00:50:29;97653.63;;;6.80;60.06
49973;BME280;65693;49.798;10.968;2023-02-26T00:53:07;97662.41;;;6.81;60.01
49973;BME280;65693;49.798;10.968;2023-02-26T00:55:54;97659.75;;;6.81;59.76
49973;BME280;65693;49.798;10.968;2023-02-26T00:58:23;97645.72;;;6.80;59.63
49973;BME280;65693;49.798;10.968;2023-02-26T01:00:51;97653.72;;;6.79;59.85
49973;BME280;65693;49.798;10.968;2023-02-26T01:03:21;97656.38;;;6.79;59.92
49973;BME280;65693;49.798;10.968;2023-02-26T01:05:49;97657.19;;;6.79;59.70
49973;BME280;65693;49.798;10.968;2023-02-26T01:08:22;97655.50;;;6.78;59.66
49973;BME280;65693;49.798;10.968;2023-02-26T01:10:59;97659.00;;;6.79;59.70
49973;BME280;65693;49.798;10.968;2023-02-26T01:13:32;97657.38;;;6.76;59.76
49973;BME280;65693;49.798;10.968;2023-02-26T01:16:04;97649.47;;;6.76;59.58
49973;BME280;65693;49.798;10.968;2023-02-26T01:18:41;97650.41;;;6.75;59.56
49973;BME280;65693;49.798;10.968;2023-02-26T01:21:14;97653.88;;;6.76;59.79
49973;BME280;65693;49.798;10.968;2023-02-26T01:23:44;97648.63;;;6.76;59.55
49973;BME280;65693;49.798;10.968;2023-02-26T01:26:20;97647.84;;;6.74;59.75
49973;BME280;65693;49.798;10.968;2023-02-26T01:28:50;97649.56;;;6.75;59.70
49973;BME280;65693;49.798;10.968;2023-02-26T01:31:31;97645.22;;;6.74;59.59
49973;BME280;65693;49.798;10.968;2023-02-26T01:34:07;97655.75;;;6.74;59.56
49973;BME280;65693;49.798;10.968;2023-02-26T01:36:40;97656.69;;;6.73;59.41
49973;BME280;65693;49.798;10.968;2023-02-26T01:39:15;97651.53;;;6.71;59.68
49973;BME280;65693;49.798;10.968;2023-02-26T01:41:50;97650.59;;;6.72;59.38
49973;BME280;65693;49.798;10.968;2023-02-26T01:44:24;97654.19;;;6.71;59.38
49973;BME280;65693;49.798;10.968;2023-02-26T01:47:09;97656.88;;;6.69;59.50
49973;BME280;65693;49.798;10.968;2023-02-26T01:49:40;97654.25;;;6.69;59.49
49973;BME280;65693;49.798;10.968;2023-02-26T01:55:22;97671.75;;;6.70;59.51
49973;BME280;65693;49.798;10.968;2023-02-26T01:58:02;97672.69;;;6.69;59.29
49973;BME280;65693;49.798;10.968;2023-02-26T02:00:32;97675.38;;;6.68;59.44
49973;BME280;65693;49.798;10.968;2023-02-26T02:03:03;97668.34;;;6.68;59.28
49973;BME280;65693;49.798;10.968;2023-02-26T02:05:41;97667.50;;;6.68;59.48
49973;BME280;65693;49.798;10.968;2023-02-26T02:08:11;97669.28;;;6.67;59.36
49973;BME280;65693;49.798;10.968;2023-02-26T02:10:41;97677.19;;;6.67;59.34
49973;BME280;65693;49.798;10.968;2023-02-26T02:13:30;97674.56;;;6.67;59.81
49973;BME280;65693;49.798;10.968;2023-02-26T02:16:16;97681.59;;;6.67;59.46
49973;BME280;65693;49.798;10.968;2023-02-26T02:18:52;97681.69;;;6.65;59.22
49973;BME280;65693;49.798;10.968;2023-02-26T02:21:37;97680.00;;;6.64;59.37
49973;BME280;65693;49.798;10.968;2023-02-26T02:24:14;97681.78;;;6.64;59.43
49973;BME280;65693;49.798;10.968;2023-02-26T02:26:57;97676.50;;;6.64;59.08
49973;BME280;65693;49.798;10.968;2023-02-26T02:29:58;97668.78;;;6.61;59.08
49973;BME280;65693;49.798;10.968;2023-02-26T02:32:50;97676.59;;;6.62;59.04
49973;BME280;65693;49.798;10.968;2023-02-26T02:35:25;97683.75;;;6.60;59.26
49973;BME280;65693;49.798;10.968;2023-02-26T02:37:59;97688.91;;;6.62;58.91
49973;BME280;65693;49.798;10.968;2023-02-26T02:40:32;97693.34;;;6.61;59.15
49973;BME280;65693;49.798;10.968;2023-02-26T02:43:07;97695.13;;;6.61;59.16
49973;BME280;65693;49.798;10.968;2023-02-26T02:45:42;97696.06;;;6.60;59.20
49973;BME280;65693;49.798;10.968;2023-02-26T02:48:20;97696.91;;;6.60;59.24
49973;BME280;65693;49.798;10.968;2023-02-26T02:50:55;97708.28;;;6.61;58.92
49973;BME280;65693;49.798;10.968;2023-02-26T02:53:29;97702.19;;;6.60;58.93
49973;BME280;65693;49.798;10.968;2023-02-26T02:56:06;97697.94;;;6.58;59.06
49973;BME280;65693;49.798;10.968;2023-02-26T02:58:46;97710.16;;;6.59;59.12
49973;BME280;65693;49.798;10.968;2023-02-26T03:01:18;97712.03;;;6.57;58.99
49973;BME280;65693;49.798;10.968;2023-02-26T03:04:08;97701.41;;;6.58;58.92
49973;BME280;65693;49.798;10.968;2023-02-26T03:06:36;97712.03;;;6.57;58.84
49973;BME280;65693;49.798;10.968;2023-02-26T03:09:08;97712.97;;;6.55;58.96
49973;BME280;65693;49.798;10.968;2023-02-26T03:11:37;97716.53;;;6.54;58.95
49973;BME280;65693;49.798;10.968;2023-02-26T03:14:05;97722.63;;;6.55;59.13
49973;BME280;65693;49.798;10.968;2023-02-26T03:16:55;97734.03;;;6.55;58.85
49973;BME280;65693;49.798;10.968;2023-02-26T03:19:37;97734.09;;;6.54;59.23
49973;BME280;65693;49.798;10.968;2023-02-26T03:22:11;97728.84;;;6.54;59.19
49973;BME280;65693;49.798;10.968;2023-02-26T03:24:48;97714.84;;;6.53;59.24
49973;BME280;65693;49.798;10.968;2023-02-26T03:27:22;97722.72;;;6.53;59.02
49973;BME280;65693;49.798;10.968;2023-02-26T03:29:58;97726.19;;;6.54;59.11
49973;BME280;65693;49.798;10.968;2023-02-26T03:32:40;97732.34;;;6.54;58.94
49973;BME280;65693;49.798;10.968;2023-02-26T03:35:17;97735.91;;;6.53;59.20
49973;BME280;65693;49.798;10.968;2023-02-26T03:37:49;97735.03;;;6.53;59.06
49973;BME280;65693;49.798;10.968;2023-02-26T03:40:27;97739.38;;;6.54;58.91
49973;BME280;65693;49.798;10.968;2023-02-26T03:43:02;97749.06;;;6.53;59.13
49973;BME280;65693;49.798;10.968;2023-02-26T03:45:33;97743.88;;;6.52;59.20
49973;BME280;65693;49.798;10.968;2023-02-26T03:48:06;97750.00;;;6.52;58.91
49973;BME280;65693;49.798;10.968;2023-02-26T03:50:43;97749.13;;;6.52;58.97
49973;BME280;65693;49.798;10.968;2023-02-26T03:53:23;97755.25;;;6.52;59.05
49973;BME280;65693;49.798;10.968;2023-02-26T03:55:56;97756.16;;;6.51;58.86
49973;BME280;65693;49.798;10.968;2023-02-26T03:58:25;97756.28;;;6.50;58.91
49973;BME280;65693;49.798;10.968;2023-02-26T04:00:54;97760.59;;;6.51;58.87
49973;BME280;65693;49.798;10.968;2023-02-26T04:03:30;97767.56;;;6.52;59.01
49973;BME280;65693;49.798;10.968;2023-02-26T04:06:07;97758.81;;;6.51;58.94
49973;BME280;65693;49.798;10.968;2023-02-26T04:08:41;97766.81;;;6.50;58.82
49973;BME280;65693;49.798;10.968;2023-02-26T04:11:13;97773.84;;;6.49;59.07
49973;BME280;65693;49.798;10.968;2023-02-26T04:13:43;97773.84;;;6.49;58.99
49973;BME280;65693;49.798;10.968;2023-02-26T04:16:11;97777.34;;;6.50;58.98
49973;BME280;65693;49.798;10.968;2023-02-26T04:18:42;97775.63;;;6.49;59.20
49973;BME280;65693;49.798;10.968;2023-02-26T04:21:12;97785.22;;;6.50;59.19
49973;BME280;65693;49.798;10.968;2023-02-26T04:23:48;97784.38;;;6.49;58.96
49973;BME280;65693;49.798;10.968;2023-02-26T04:26:18;97787.94;;;6.48;58.96
49973;BME280;65693;49.798;10.968;2023-02-26T04:28:47;97787.09;;;6.48;59.05
49973;BME280;65693;49.798;10.968;2023-02-26T04:31:17;97791.44;;;6.49;59.05
49973;BME280;65693;49.798;10.968;2023-02-26T04:33:47;97795.94;;;6.47;58.85
49973;BME280;65693;49.798;10.968;2023-02-26T04:36:20;97794.13;;;6.47;58.92
49973;BME280;65693;49.798;10.968;2023-02-26T04:38:47;97804.66;;;6.47;58.85
49973;BME280;65693;49.798;10.968;2023-02-26T04:41:19;97800.34;;;6.46;58.80
49973;BME280;65693;49.798;10.968;2023-02-26T04:43:52;97803.06;;;6.45;58.92
49973;BME280;65693;49.798;10.968;2023-02-26T04:46:23;97804.84;;;6.44;58.88
49973;BME280;65693;49.798;10.968;2023-02-26T04:48:50;97811.91;;;6.44;58.66
49973;BME280;65693;49.798;10.968;2023-02-26T04:51:20;97818.84;;;6.45;58.84
49973;BME280;65693;49.798;10.968;2023-02-26T04:53:50;97815.38;;;6.44;58.85
49973;BME280;65693;49.798;10.968;2023-02-26T04:56:32;97810.09;;;6.44;58.65
49973;BME280;65693;49.798;10.968;2023-02-26T04:59:00;97818.84;;;6.45;58.73
49973;BME280;65693;49.798;10.968;2023-02-26T05:01:30;97819.69;;;6.45;58.65
49973;BME280;65693;49.798;10.968;2023-02-26T05:03:57;97824.19;;;6.43;58.79
49973;BME280;65693;49.798;10.968;2023-02-26T05:06:28;97829.47;;;6.43;58.78
49973;BME280;65693;49.798;10.968;2023-02-26T05:09:07;97826.91;;;6.41;58.82
49973;BME280;65693;49.798;10.968;2023-02-26T05:11:35;97826.81;;;6.43;58.86
49973;BME280;65693;49.798;10.968;2023-02-26T05:14:03;97830.38;;;6.42;58.75
49973;BME280;65693;49.798;10.968;2023-02-26T05:16:31;97832.16;;;6.41;58.80
49973;BME280;65693;49.798;10.968;2023-02-26T05:18:58;97831.31;;;6.41;58.77
49973;BME280;65693;49.798;10.968;2023-02-26T05:21:28;97846.19;;;6.42;58.88
49973;BME280;65693;49.798;10.968;2023-02-26T05:23:57;97843.56;;;6.42;59.27
49973;BME280;65693;49.798;10.968;2023-02-26T05:26:24;97842.69;;;6.41;58.78
49973;BME280;65693;49.798;10.968;2023-02-26T05:28:54;97841.91;;;6.39;59.05
49973;BME280;65693;49.798;10.968;2023-02-26T05:31:25;97846.25;;;6.40;58.77
49973;BME280;65693;49.798;10.968;2023-02-26T05:33:59;97851.53;;;6.40;58.60
49973;BME280;65693;49.798;10.968;2023-02-26T05:36:41;97852.56;;;6.38;58.89
49973;BME280;65693;49.798;10.968;2023-02-26T05:39:10;97855.94;;;6.40;58.65
49973;BME280;65693;49.798;10.968;2023-02-26T05:41:41;97858.59;;;6.40;58.80
49973;BME280;65693;49.798;10.968;2023-02-26T05:44:07;97856.88;;;6.39;58.70
49973;BME280;65693;49.798;10.968;2023-02-26T05:46:37;97857.81;;;6.38;58.79
49973;BME280;65693;49.798;10.968;2023-02-26T05:49:07;97859.50;;;6.39;58.90
49973;BME280;65693;49.798;10.968;2023-02-26T05:51:42;97870.03;;;6.39;58.88
49973;BME280;65693;49.798;10.968;2023-02-26T05:54:12;97868.25;;;6.39;58.81
49973;BME280;65693;49.798;10.968;2023-02-26T05:56:50;97874.38;;;6.40;58.84
49973;BME280;65693;49.798;10.968;2023-02-26T05:59:19;97884.13;;;6.38;58.86
49973;BME280;65693;49.798;10.968;2023-02-26T06:01:48;97880.63;;;6.37;58.89
49973;BME280;65693;49.798;10.968;2023-02-26T06:04:18;97896.44;;;6.37;58.93
49973;BME280;65693;49.798;10.968;2023-02-26T06:06:47;97885.13;;;6.35;58.79
49973;BME280;65693;49.798;10.968;2023-02-26T06:09:16;97892.09;;;6.36;58.92
49973;BME280;65693;49.798;10.968;2023-02-26T06:11:45;97900.00;;;6.36;58.93
49973;BME280;65693;49.798;10.968;2023-02-26T06:14:14;97902.63;;;6.36;58.95
49973;BME280;65693;49.798;10.968;2023-02-26T06:16:49;97909.59;;;6.37;58.88
49973;BME280;65693;49.798;10.968;2023-02-26T06:19:18;97911.47;;;6.35;58.79
49973;BME280;65693;49.798;10.968;2023-02-26T06:21:50;97915.03;;;6.34;58.76
49973;BME280;65693;49.798;10.968;2023-02-26T06:24:18;97917.59;;;6.36;58.85
49973;BME280;65693;49.798;10.968;2023-02-26T06:26:48;97916.72;;;6.35;58.80
49973;BME280;65693;49.798;10.968;2023-02-26T06:29:18;97927.44;;;6.31;57.67
49973;BME280;65693;49.798;10.968;2023-02-26T06:31:47;97922.41;;;6.26;58.14
49973;BME280;65693;49.798;10.968;2023-02-26T06:34:15;97933.19;;;6.21;57.99
49973;BME280;65693;49.798;10.968;2023-02-26T06:36:43;97936.75;;;6.20;58.05
49973;BME280;65693;49.798;10.968;2023-02-26T06:39:14;97945.31;;;6.24;57.96
49973;BME280;65693;49.798;10.968;2023-02-26T06:41:49;97945.31;;;6.24;58.04
49973;BME280;65693;49.798;10.968;2023-02-26T06:44:19;97947.34;;;6.19;56.90
49973;BME280;65693;49.798;10.968;2023-02-26T06:46:50;97964.44;;;6.10;57.06
49973;BME280;65693;49.798;10.968;2023-02-26T06:49:21;97972.13;;;6.15;57.01
49973;BME280;65693;49.798;10.968;2023-02-26T06:51:48;97971.41;;;6.11;57.41
49973;BME280;65693;49.798;10.968;2023-02-26T06:54:18;97986.38;;;6.10;57.47
49973;BME280;65693;49.798;10.968;2023-02-26T06:56:45;97985.34;;;6.13;57.61
49973;BME280;65693;49.798;10.968;2023-02-26T06:59:12;97984.50;;;6.12;57.56
49973;BME280;65693;49.798;10.968;2023-02-26T07:01:42;97983.31;;;6.18;57.52
49973;BME280;65693;49.798;10.968;2023-02-26T07:04:09;97995.59;;;6.19;57.67
49973;BME280;65693;49.798;10.968;2023-02-26T07:06:39;98000.84;;;6.19;57.66
49973;BME280;65693;49.798;10.968;2023-02-26T07:09:09;98000.84;;;6.19;57.75
49973;BME280;65693;49.798;10.968;2023-02-26T07:11:42;98006.94;;;6.20;57.84
49973;BME280;65693;49.798;10.968;2023-02-26T07:14:18;98011.38;;;6.19;57.79
49973;BME280;65693;49.798;10.968;2023-02-26T07:16:48;98023.59;;;6.20;57.90
49973;BME280;65693;49.798;10.968;2023-02-26T07:19:18;98016.63;;;6.19;57.82
49973;BME280;65693;49.798;10.968;2023-02-26T07:21:47;98016.63;;;6.19;58.11
49973;BME280;65693;49.798;10.968;2023-02-26T07:24:27;98027.16;;;6.19;57.87
49973;BME280;65693;49.798;10.968;2023-02-26T07:27:07;98027.16;;;6.19;58.15
49973;BME280;65693;49.798;10.968;2023-02-26T07:29:37;98034.13;;;6.20;58.04
49973;BME280;65693;49.798;10.968;2023-02-26T07:32:06;98036.75;;;6.20;58.08
49973;BME280;65693;49.798;10.968;2023-02-26T07:34:32;98053.47;;;6.19;58.17
49973;BME280;65693;49.798;10.968;2023-02-26T07:36:59;98057.00;;;6.18;58.02
49973;BME280;65693;49.798;10.968;2023-02-26T07:39:41;98059.56;;;6.20;58.05
49973;BME280;65693;49.798;10.968;2023-02-26T07:42:13;98055.25;;;6.19;58.09
49973;BME280;65693;49.798;10.968;2023-02-26T07:44:42;98060.56;;;6.17;58.14
49973;BME280;65693;49.798;10.968;2023-02-26T07:47:08;98063.28;;;6.16;58.21
49973;BME280;65693;49.798;10.968;2023-02-26T07:49:37;98066.69;;;6.18;58.13
49973;BME280;65693;49.798;10.968;2023-02-26T07:52:12;98067.53;;;6.18;58.01
49973;BME280;65693;49.798;10.968;2023-02-26T07:54:42;98068.41;;;6.19;58.27
49973;BME280;65693;49.798;10.968;2023-02-26T07:57:24;98073.72;;;6.17;58.09
49973;BME280;65693;49.798;10.968;2023-02-26T07:59:54;98084.25;;;6.17;58.20
49973;BME280;65693;49.798;10.968;2023-02-26T08:02:26;98079.06;;;6.16;58.20
49973;BME280;65693;49.798;10.968;2023-02-26T08:05:00;98083.47;;;6.15;58.10
49973;BME280;65693;49.798;10.968;2023-02-26T08:07:31;98089.66;;;6.14;58.22
49973;BME280;65693;49.798;10.968;2023-02-26T08:10:01;98098.44;;;6.15;58.21
49973;BME280;65693;49.798;10.968;2023-02-26T08:12:30;98094.94;;;6.14;58.15
49973;BME280;65693;49.798;10.968;2023-02-26T08:15:00;98098.44;;;6.15;58.34
49973;BME280;65693;49.798;10.968;2023-02-26T08:17:30;98097.56;;;6.14;58.01
49973;BME280;65693;49.798;10.968;2023-02-26T08:20:12;98092.22;;;6.16;57.97
49973;BME280;65693;49.798;10.968;2023-02-26T08:22:41;98097.56;;;6.14;58.06
49973;BME280;65693;49.798;10.968;2023-02-26T08:25:10;98103.75;;;6.13;58.21
49973;BME280;65693;49.798;10.968;2023-02-26T08:27:41;98111.72;;;6.11;58.11
49973;BME280;65693;49.798;10.968;2023-02-26T08:30:09;98104.63;;;6.13;58.03
49973;BME280;65693;49.798;10.968;2023-02-26T08:32:40;98108.19;;;6.12;58.00
49973;BME280;65693;49.798;10.968;2023-02-26T08:35:12;98106.38;;;6.13;58.07
49973;BME280;65693;49.798;10.968;2023-02-26T08:37:41;98107.31;;;6.12;58.08
49973;BME280;65693;49.798;10.968;2023-02-26T08:40:09;98116.91;;;6.13;58.15
49973;BME280;65693;49.798;10.968;2023-02-26T08:42:42;98125.72;;;6.12;58.15
49973;BME280;65693;49.798;10.968;2023-02-26T08:45:09;98131.75;;;6.14;58.34
49973;BME280;65693;49.798;10.968;2023-02-26T08:47:37;98127.28;;;6.16;57.98
49973;BME280;65693;49.798;10.968;2023-02-26T08:50:09;98147.56;;;6.14;57.88
49973;BME280;65693;49.798;10.968;2023-02-26T08:52:42;98137.03;;;6.14;57.97
49973;BME280;65693;49.798;10.968;2023-02-26T08:55:11;98150.28;;;6.12;58.08
49973;BME280;65693;49.798;10.968;2023-02-26T08:57:43;98160.09;;;6.09;57.93
49973;BME280;65693;49.798;10.968;2023-02-26T09:00:19;98162.72;;;6.09;57.71
49973;BME280;65693;49.798;10.968;2023-02-26T09:02:56;98166.28;;;6.08;57.79
49973;BME280;65693;49.798;10.968;2023-02-26T09:05:24;98161.84;;;6.08;57.91
49973;BME280;65693;49.798;10.968;2023-02-26T09:07:52;98178.50;;;6.09;57.61
49973;BME280;65693;49.798;10.968;2023-02-26T09:10:23;98170.66;;;6.07;57.63
49973;BME280;65693;49.798;10.968;2023-02-26T09:12:56;98166.28;;;6.08;57.68
49973;BME280;65693;49.798;10.968;2023-02-26T09:15:26;98179.34;;;6.09;57.66
49973;BME280;65693;49.798;10.968;2023-02-26T09:17:54;98182.91;;;6.08;57.92
49973;BME280;65693;49.798;10.968;2023-02-26T09:20:21;98185.53;;;6.08;57.67
49973;BME280;65693;49.798;10.968;2023-02-26T09:22:48;98188.16;;;6.08;57.81
49973;BME280;65693;49.798;10.968;2023-02-26T09:25:18;98198.69;;;6.08;57.60
49973;BME280;65693;49.798;10.968;2023-02-26T09:28:01;98210.06;;;6.09;57.59
49973;BME280;65693;49.798;10.968;2023-02-26T09:30:31;98209.28;;;6.07;57.70
49973;BME280;65693;49.798;10.968;2023-02-26T09:33:01;98209.28;;;6.07;57.53
49973;BME280;65693;49.798;10.968;2023-02-26T09:35:31;98215.47;;;6.06;57.60
49973;BME280;65693;49.798;10.968;2023-02-26T09:38:01;98218.13;;;6.06;57.60
49973;BME280;65693;49.798;10.968;2023-02-26T09:40:37;98220.59;;;6.09;57.49
49973;BME280;65693;49.798;10.968;2023-02-26T09:43:32;98227.63;;;6.08;57.85
49973;BME280;65693;49.798;10.968;2023-02-26T09:46:05;98228.50;;;6.09;57.66
49973;BME280;65693;49.798;10.968;2023-02-26T09:48:36;98243.41;;;6.08;57.81
49973;BME280;65693;49.798;10.968;2023-02-26T09:51:11;98230.34;;;6.07;57.62
49973;BME280;65693;49.798;10.968;2023-02-26T09:53:40;98251.41;;;6.07;57.34
49973;BME280;65693;49.798;10.968;2023-02-26T09:56:20;98244.41;;;6.06;57.62
49973;BME280;65693;49.798;10.968;2023-02-26T09:58:50;98250.63;;;6.05;57.38
49973;BME280;65693;49.798;10.968;2023-02-26T10:01:23;98259.34;;;6.05;57.63
49973;BME280;65693;49.798;10.968;2023-02-26T10:04:02;98261.13;;;6.05;57.37
49973;BME280;65693;49.798;10.968;2023-02-26T10:06:34;98251.44;;;6.05;57.39
49973;BME280;65693;49.798;10.968;2023-02-26T10:09:19;98257.59;;;6.06;57.17
49973;BME280;65693;49.798;10.968;2023-02-26T10:11:55;98256.72;;;6.05;57.35
49973;BME280;65693;49.798;10.968;2023-02-26T10:14:33;98281.25;;;6.06;57.39
49973;BME280;65693;49.798;10.968;2023-02-26T10:17:10;98258.50;;;6.05;57.22
49973;BME280;65693;49.798;10.968;2023-02-26T10:19:42;98265.53;;;6.04;57.33
49973;BME280;65693;49.798;10.968;2023-02-26T10:22:23;98280.38;;;6.05;57.14
49973;BME280;65693;49.798;10.968;2023-02-26T10:24:58;98276.06;;;6.04;57.20
49973;BME280;65693;49.798;10.968;2023-02-26T10:27:39;98280.47;;;6.04;57.22
49973;BME280;65693;49.798;10.968;2023-02-26T10:30:13;98283.94;;;6.04;56.94
49973;BME280;65693;49.798;10.968;2023-02-26T10:32:51;98288.44;;;6.02;57.06
49973;BME280;65693;49.798;10.968;2023-02-26T10:35:23;98287.56;;;6.02;56.97
49973;BME280;65693;49.798;10.968;2023-02-26T10:38:03;98290.28;;;6.00;56.66
49973;BME280;65693;49.798;10.968;2023-02-26T10:40:41;98295.53;;;6.00;56.92
49973;BME280;65693;49.798;10.968;2023-02-26T10:43:15;98288.44;;;6.02;56.73
49973;BME280;65693;49.798;10.968;2023-02-26T10:45:56;98297.19;;;6.03;56.86
49973;BME280;65693;49.798;10.968;2023-02-26T10:48:37;98292.75;;;6.03;56.75
49973;BME280;65693;49.798;10.968;2023-02-26T10:51:12;98299.94;;;5.99;56.59
49973;BME280;65693;49.798;10.968;2023-02-26T10:53:43;98295.59;;;5.98;56.70
49973;BME280;65693;49.798;10.968;2023-02-26T10:56:19;98302.69;;;5.96;56.89
49973;BME280;65693;49.798;10.968;2023-02-26T10:58:52;98303.56;;;5.97;56.36
49973;BME280;65693;49.798;10.968;2023-02-26T11:01:27;98298.38;;;5.95;56.95
49973;BME280;65693;49.798;10.968;2023-02-26T11:04:02;98308.88;;;5.95;56.64
49973;BME280;65693;49.798;10.968;2023-02-26T11:06:34;98301.91;;;5.94;56.70
49973;BME280;65693;49.798;10.968;2023-02-26T11:09:16;98303.63;;;5.95;56.61
49973;BME280;65693;49.798;10.968;2023-02-26T11:11:51;98311.38;;;5.98;56.55
49973;BME280;65693;49.798;10.968;2023-02-26T11:14:19;98313.09;;;5.99;56.69
49973;BME280;65693;49.798;10.968;2023-02-26T11:16:53;98314.88;;;5.99;56.93
49973;BME280;65693;49.798;10.968;2023-02-26T11:19:28;98318.34;;;5.99;56.65
49973;BME280;65693;49.798;10.968;2023-02-26T11:22:05;98331.44;;;6.01;56.56
49973;BME280;65693;49.798;10.968;2023-02-26T11:24:37;98321.84;;;6.00;56.34
49973;BME280;65693;49.798;10.968;2023-02-26T11:27:10;98329.66;;;6.02;56.20
49973;BME280;65693;49.798;10.968;2023-02-26T11:29:44;98339.34;;;6.01;56.27
49973;BME280;65693;49.798;10.968;2023-02-26T11:32:30;98317.56;;;5.97;56.21
49973;BME280;65693;49.798;10.968;2023-02-26T11:35:02;98321.06;;;5.98;56.35
49973;BME280;65693;49.798;10.968;2023-02-26T11:37:30;98313.16;;;5.98;56.34
49973;BME280;65693;49.798;10.968;2023-02-26T11:40:05;98316.63;;;5.98;56.59
49973;BME280;65693;49.798;10.968;2023-02-26T11:42:36;98320.13;;;5.99;56.25
49973;BME280;65693;49.798;10.968;2023-02-26T11:45:06;98332.38;;;6.00;56.49
49973;BME280;65693;49.798;10.968;2023-02-26T11:47:47;98322.78;;;5.99;56.37
49973;BME280;65693;49.798;10.968;2023-02-26T11:50:19;98318.44;;;5.98;56.35
49973;BME280;65693;49.798;10.968;2023-02-26T11:52:54;98323.81;;;5.95;56.29
49973;BME280;65693;49.798;10.968;2023-02-26T11:55:29;98328.88;;;5.99;56.07
49973;BME280;65693;49.798;10.968;2023-02-26T11:58:14;98321.13;;;5.96;56.23
49973;BME280;65693;49.798;10.968;2023-02-26T12:00:45;98328.09;;;5.97;56.19
49973;BME280;65693;49.798;10.968;2023-02-26T12:03:32;98319.34;;;5.97;56.05
49973;BME280;65693;49.798;10.968;2023-02-26T12:06:01;98320.34;;;5.94;55.96
49973;BME280;65693;49.798;10.968;2023-02-26T12:08:35;98326.38;;;5.96;56.04
49973;BME280;65693;49.798;10.968;2023-02-26T12:11:24;98328.16;;;5.96;55.94
49973;BME280;65693;49.798;10.968;2023-02-26T12:14:07;98325.53;;;5.96;56.19
49973;BME280;65693;49.798;10.968;2023-02-26T12:16:48;98321.13;;;5.96;55.93
49973;BME280;65693;49.798;10.968;2023-02-26T12:19:35;98338.69;;;5.96;56.19
49973;BME280;65693;49.798;10.968;2023-02-26T12:22:34;98333.44;;;5.96;55.72
49973;BME280;65693;49.798;10.968;2023-02-26T12:29:19;98317.56;;;5.97;55.76
49973;BME280;65693;49.798;10.968;2023-02-26T12:32:26;98322.03;;;5.95;55.69
49973;BME280;65693;49.798;10.968;2023-02-26T12:35:38;98320.97;;;5.99;55.59
49973;BME280;65693;49.798;10.968;2023-02-26T12:38:36;98318.47;;;5.96;55.76
49973;BME280;65693;49.798;10.968;2023-02-26T12:41:22;98307.03;;;5.97;55.77
49973;BME280;65693;49.798;10.968;2023-02-26T12:43:53;98321.25;;;5.93;55.84
49973;BME280;65693;49.798;10.968;2023-02-26T12:46:39;98342.09;;;5.98;55.57
49973;BME280;65693;49.798;10.968;2023-02-26T12:49:45;98321.97;;;5.97;55.55
49973;BME280;65693;49.798;10.968;2023-02-26T12:52:36;98321.13;;;5.96;55.59
49973;BME280;65693;49.798;10.968;2023-02-26T12:55:16;98309.66;;;5.97;55.60
49973;BME280;65693;49.798;10.968;2023-02-26T12:58:21;98320.19;;;5.97;55.62
49973;BME280;65693;49.798;10.968;2023-02-26T13:01:12;98319.25;;;5.98;55.49
49973;BME280;65693;49.798;10.968;2023-02-26T13:07:07;98313.94;;;6.00;55.55
49973;BME280;65693;49.798;10.968;2023-02-26T13:09:56;98316.63;;;5.98;55.40
49973;BME280;65693;49.798;10.968;2023-02-26T13:12:39;98334.13;;;5.99;55.59
49973;BME280;65693;49.798;10.968;2023-02-26T13:15:37;98324.53;;;5.98;55.49
49973;BME280;65693;49.798;10.968;2023-02-26T13:18:14;98329.78;;;5.98;55.34
49973;BME280;65693;49.798;10.968;2023-02-26T13:20:50;98320.19;;;5.97;55.40
49973;BME280;65693;49.798;10.968;2023-02-26T13:23:30;98330.66;;;5.99;55.10
49973;BME280;65693;49.798;10.968;2023-02-26T13:26:07;98320.97;;;5.99;55.03
49973;BME280;65693;49.798;10.968;2023-02-26T13:28:41;98324.53;;;5.98;54.85
49973;BME280;65693;49.798;10.968;2023-02-26T13:31:16;98329.72;;;6.00;55.08
49973;BME280;65693;49.798;10.968;2023-02-26T13:33:48;98334.13;;;5.99;55.21
49973;BME280;65693;49.798;10.968;2023-02-26T13:36:21;98336.06;;;5.96;55.18
49973;BME280;65693;49.798;10.968;2023-02-26T13:38:59;98332.50;;;5.97;55.15
49973;BME280;65693;49.798;10.968;2023-02-26T13:41:41;98340.44;;;5.95;55.23
49973;BME280;65693;49.798;10.968;2023-02-26T13:44:26;98339.53;;;5.96;54.92
49973;BME280;65693;49.798;10.968;2023-02-26T13:47:20;98338.69;;;5.96;54.99
49973;BME280;65693;49.798;10.968;2023-02-26T13:50:05;98336.91;;;5.96;54.96